ADDS METAR Data INFO
IDs: Format: Raw Decoded Include TAF

Data at: 0934 UTC 17 Oct 2017

KIGQ 170915Z AUTO 22004KT 10SM CLR 07/04 A3024 RMK AO2 T00670040
KIGQ 170855Z AUTO 20005KT 10SM CLR 07/04 A3023 RMK AO2 T00650040
KIGQ 170835Z AUTO 20005KT 10SM CLR 07/04 A3023 RMK AO2 T00660040
KIGQ 170815Z AUTO 21004KT 10SM CLR 07/04 A3023 RMK AO2 T00700041
KIGQ 170755Z AUTO 21007KT 10SM CLR 07/04 A3023 RMK AO2 T00710043
KIGQ 170735Z AUTO 21005KT 10SM CLR 07/04 A3023 RMK AO2 T00700041
KIGQ 170715Z AUTO 22004KT 10SM CLR 07/04 A3023 RMK AO2 T00700041
KIGQ 170655Z AUTO 21004KT 10SM CLR 07/04 A3023 RMK AO2 T00650041
KIGQ 170635Z AUTO 21003KT 10SM CLR 07/04 A3023 RMK AO2 T00650039
KIGQ 170615Z AUTO 20004KT 10SM CLR 07/04 A3023 RMK AO2 T00690040
KIGQ 170555Z AUTO 00000KT 10SM CLR 07/04 A3023 RMK AO2 T00700040 10106 20061 401670045
KIGQ 170535Z AUTO 00000KT 10SM CLR 06/04 A3023 RMK AO2 T00640041
KIGQ 170515Z AUTO 00000KT 10SM CLR 07/04 A3023 RMK AO2 T00650041
KIGQ 170455Z AUTO 22003KT 10SM CLR 07/04 A3023 RMK AO2 T00690042
KIGQ 170435Z AUTO 23003KT 10SM CLR 07/04 A3023 RMK AO2 T00710043
KIGQ 170415Z AUTO 22003KT 10SM CLR 07/04 A3023 RMK AO2 T00720042
KIGQ 170355Z AUTO 21003KT 10SM CLR 07/05 A3023 RMK AO2 T00720045
KIGQ 170335Z AUTO 00000KT 10SM CLR 07/04 A3023 RMK AO2 T00660043
KIGQ 170315Z AUTO 19005KT 10SM CLR 07/04 A3023 RMK AO2 T00700041
KIGQ 170255Z AUTO 18004KT 10SM CLR 07/04 A3024 RMK AO2 T00730042
KIGQ 170235Z AUTO 18003KT 10SM CLR 08/05 A3024 RMK AO2 T00810046
KIGQ 170215Z AUTO 00000KT 10SM CLR 08/05 A3024 RMK AO2 T00800047
KIGQ 170155Z AUTO 19004KT 10SM CLR 08/05 A3024 RMK AO2 T00760046
KIGQ 170135Z AUTO 00000KT 10SM CLR 09/05 A3024 RMK AO2 T00850054
KIGQ 170115Z AUTO 19003KT 10SM CLR 08/05 A3023 RMK AO2 T00780052
KIGQ 170055Z AUTO 00000KT 10SM CLR 09/06 A3024 RMK AO2 T00890060
KIGQ 170035Z AUTO 00000KT 10SM CLR 09/06 A3024 RMK AO2 T00920056
KIGQ 170015Z AUTO 22003KT 10SM CLR 10/05 A3024 RMK AO2 T00990054
KIGQ 162355Z AUTO 00000KT 10SM CLR 10/05 A3024 RMK AO2 T01040052 10167 20100
KIGQ 162335Z AUTO 23003KT 10SM CLR 12/05 A3024 RMK AO2 T01240051
KIGQ 162315Z AUTO 23005KT 10SM CLR 13/05 A3023 RMK AO2 T01310046
KIGQ 162255Z AUTO 22005KT 10SM CLR 14/05 A3023 RMK AO2 T01430045
KIGQ 162235Z AUTO 25007KT 10SM CLR 16/04 A3023 RMK AO2 T01550041
KIGQ 162215Z AUTO 27008KT 10SM CLR 16/04 A3024 RMK AO2 T01590041
KIGQ 162155Z AUTO 28008KT 10SM CLR 16/04 A3024 RMK AO2 T01620042
KIGQ 162135Z AUTO 27012KT 10SM CLR 17/04 A3024 RMK AO2 T01650041
KIGQ 162115Z AUTO 25011KT 10SM CLR 17/05 A3025 RMK AO2 T01660045
KIGQ 162055Z AUTO 25011KT 10SM CLR 17/04 A3025 RMK AO2 T01670044
KIGQ 162035Z AUTO 23011G18KT 10SM CLR 17/05 A3025 RMK AO2 T01660048
KIGQ 162015Z AUTO 26010KT 10SM CLR 17/05 A3025 RMK AO2 T01670048
KIGQ 161955Z AUTO 27010G17KT 10SM CLR 17/05 A3025 RMK AO2 T01660047
KIGQ 161935Z AUTO 26006G16KT 10SM CLR 16/05 A3026 RMK AO2 T01640050
KIGQ 161915Z AUTO 26009G16KT 10SM CLR 16/05 A3027 RMK AO2 T01620050
KIGQ 161855Z AUTO 26007KT 10SM SCT050 16/05 A3028 RMK AO2 T01590053
KIGQ 161835Z AUTO 23012G16KT 10SM SCT050 16/06 A3029 RMK AO2 T01600055
KIGQ 161815Z AUTO 26010KT 10SM CLR 16/05 A3030 RMK AO2 T01550049
KIGQ 161755Z AUTO 26012G16KT 10SM CLR 16/05 A3031 RMK AO2 T01550049 10155 20046
KIGQ 161735Z AUTO 26010G16KT 10SM CLR 15/05 A3031 RMK AO2 T01500050
KIGQ 161715Z AUTO 23007KT 10SM CLR 15/05 A3032 RMK AO2 T01450047
KIGQ 161655Z AUTO 25013G16KT 10SM CLR 15/05 A3032 RMK AO2 T01460054
KIGQ 161635Z AUTO 24012KT 10SM CLR 14/06 A3033 RMK AO2 T01380055
KIGQ 161615Z AUTO 25009KT 10SM CLR 13/06 A3033 RMK AO2 T01330060
KIGQ 161555Z AUTO 25008KT 10SM CLR 13/06 A3033 RMK AO2 T01270059
KIGQ 161535Z AUTO 24010KT 10SM CLR 12/06 A3033 RMK AO2 T01240059
KIGQ 161515Z AUTO 26011KT 10SM CLR 12/06 A3033 RMK AO2 T01190060
KIGQ 161455Z AUTO 26007KT 10SM CLR 11/06 A3033 RMK AO2 T01120061
KIGQ 161435Z AUTO 25011KT 10SM CLR 10/06 A3033 RMK AO2 T01040058
KIGQ 161415Z AUTO 25006KT 10SM CLR 10/06 A3033 RMK AO2 T00960060
KIGQ 161355Z AUTO 26006KT 10SM CLR 09/06 A3034 RMK AO2 T00860061
KIGQ 161335Z AUTO 26006KT 10SM CLR 08/06 A3033 RMK AO2 T00760057
KIGQ 161315Z AUTO 27005KT 10SM CLR 07/06 A3033 RMK AO2 T00680056
KIGQ 161255Z AUTO 28005KT 10SM CLR 06/05 A3033 RMK AO2 T00590053
KIGQ 161235Z AUTO 26003KT 10SM CLR 05/05 A3032 RMK AO2 T00480045
KIGQ 161215Z AUTO 27004KT 10SM CLR 05/04 A3031 RMK AO2 T00460043
KIGQ 161155Z AUTO 27004KT 10SM CLR 05/04 A3031 RMK AO2 T00450044 10084 20045
KIGQ 161135Z AUTO 27004KT 10SM CLR 05/05 A3031 RMK AO2 T00480045
KIGQ 161115Z AUTO 27004KT 10SM CLR 05/05 A3030 RMK AO2 T00470045
KIGQ 161055Z AUTO 27005KT 10SM SCT090 05/05 A3030 RMK AO2 T00470045
KIGQ 161035Z AUTO 27005KT 10SM BKN090 05/05 A3030 RMK AO2 T00500047
KIGQ 161015Z AUTO 27005KT 10SM CLR 05/05 A3029 RMK AO2 T00500046
KIGQ 160955Z AUTO 28003KT 10SM CLR 05/05 A3029 RMK AO2 T00500046
KIGQ 160935Z AUTO 26003KT 10SM CLR 05/05 A3028 RMK AO2 T00510047
KIGQ 160915Z AUTO 00000KT 10SM CLR 06/05 A3027 RMK AO2 T00570051
KIGQ 160855Z AUTO 28003KT 10SM CLR 06/05 A3027 RMK AO2 T00600053
KIGQ 160835Z AUTO 29003KT 10SM CLR 06/06 A3027 RMK AO2 T00620055
KIGQ 160815Z AUTO 28004KT 10SM CLR 07/06 A3027 RMK AO2 T00650056
KIGQ 160755Z AUTO 29003KT 10SM CLR 07/06 A3027 RMK AO2 T00660057
KIGQ 160735Z AUTO 29003KT 10SM CLR 07/06 A3027 RMK AO2 T00680058
KIGQ 160715Z AUTO 30003KT 10SM CLR 07/06 A3027 RMK AO2 T00710059
KIGQ 160655Z AUTO 30004KT 10SM CLR 08/06 A3027 RMK AO2 T00750060
KIGQ 160635Z AUTO 30004KT 10SM CLR 08/06 A3027 RMK AO2 T00790060
KIGQ 160615Z AUTO 31008KT 10SM CLR 08/06 A3027 RMK AO2 T00820061
KIGQ 160555Z AUTO 30006KT 10SM SCT060 09/06 A3026 RMK AO2 T00850060 10116 20084 401910084
KIGQ 160535Z AUTO 31006KT 10SM BKN060 09/06 A3026 RMK AO2 T00850061
KIGQ 160515Z AUTO 29005KT 10SM OVC060 09/06 A3026 RMK AO2 T00880062
KIGQ 160455Z AUTO 28005KT 10SM OVC060 09/06 A3026 RMK AO2 T00860062
KIGQ 160435Z AUTO 28005KT 10SM SCT060 09/06 A3026 RMK AO2 T00850059
KIGQ 160415Z AUTO 29004KT 10SM SCT060 09/06 A3025 RMK AO2 T00860059
KIGQ 160355Z AUTO 29004KT 10SM BKN060 09/06 A3025 RMK AO2 T00910059
KIGQ 160335Z AUTO 30006KT 10SM BKN060 10/06 A3025 RMK AO2 T00970060
KIGQ 160315Z AUTO 30004KT 10SM BKN060 10/06 A3024 RMK AO2 T00990059
KIGQ 160255Z AUTO 31008KT 10SM OVC060 10/06 A3024 RMK AO2 T01030063
KIGQ 160235Z AUTO 30005KT 10SM OVC060 10/07 A3024 RMK AO2 T01030065
KIGQ 160215Z AUTO 30007KT 10SM OVC060 11/07 A3024 RMK AO2 T01070067
KIGQ 160155Z AUTO 29006KT 10SM OVC060 11/07 A3023 RMK AO2 T01070070
KIGQ 160135Z AUTO 30004KT 10SM OVC060 11/07 A3022 RMK AO2 T01090067
KIGQ 160115Z AUTO 31007KT 10SM OVC060 11/07 A3021 RMK AO2 T01100067
KIGQ 160055Z AUTO 31006KT 10SM OVC060 11/07 A3021 RMK AO2 T01120067
KIGQ 160035Z AUTO 31006KT 10SM SCT033 SCT040 OVC050 12/07 A3020 RMK AO2 T01150068
KIGQ 160015Z AUTO 30007KT 10SM SCT035 OVC050 12/07 A3020 RMK AO2 T01150067
KIGQ 152355Z AUTO 28006KT 10SM SCT039 OVC050 12/07 A3019 RMK AO2 T01150066 10122 20111
KIGQ 152335Z AUTO 30005KT 10SM OVC050 12/06 A3018 RMK AO2 T01170064
KIGQ 152315Z AUTO 32006KT 10SM OVC050 12/06 A3017 RMK AO2 T01170062
KIGQ 152255Z AUTO 32005KT 10SM OVC050 12/06 A3016 RMK AO2 T01190059
KIGQ 152235Z AUTO 33011G16KT 10SM BKN046 12/06 A3016 RMK AO2 T01200061
KIGQ 152215Z AUTO 34013G18KT 10SM OVC046 12/06 A3015 RMK AO2 T01210063
KIGQ 152155Z AUTO 32010G20KT 10SM SCT033 SCT038 OVC046 12/06 A3014 RMK AO2 T01200060
KIGQ 152135Z AUTO 33010KT 10SM BKN033 OVC042 12/07 A3013 RMK AO2 T01200071